Time;durP1;ratioP1;P1;durP2;ratioP2;P2;SDS_P1;SDS_P2;PMS_P1;PMS_P2;Temp;Humidity;BMP_temperature;BMP_pressure;BME280_temperature;BME280_humidity;BME280_pressure;Samples;Min_cycle;Max_cycle;Signal;HPM_P1;HPM_P2
2021/07/26 00:02:51;;;;;;;11.67;10.80;;;16.20;99.90;;;;;;4958398;28;20651;-77
2021/07/26 00:05:18;;;;;;;12.00;11.13;;;16.20;99.90;;;;;;4975729;28;20218;-77
2021/07/26 00:07:44;;;;;;;12.40;11.50;;;16.20;99.90;;;;;;4992759;28;20198;-77
2021/07/26 00:10:12;;;;;;;11.80;11.00;;;16.20;99.90;;;;;;4973040;28;20221;-78
2021/07/26 00:12:39;;;;;;;11.73;10.93;;;16.20;99.90;;;;;;4960276;28;20818;-77
2021/07/26 00:15:08;;;;;;;11.90;11.00;;;16.20;99.90;;;;;;4973627;28;20225;-77
2021/07/26 00:17:34;;;;;;;11.47;10.67;;;16.20;99.90;;;;;;4957014;28;20212;-77
2021/07/26 00:20:03;;;;;;;11.77;10.97;;;16.20;99.90;;;;;;4975326;28;20193;-77
2021/07/26 00:22:30;;;;;;;12.00;11.20;;;16.20;99.90;;;;;;4975157;28;20213;-77
2021/07/26 00:24:56;;;;;;;11.83;10.97;;;16.20;99.90;;;;;;4974224;28;20571;-77
2021/07/26 00:27:23;;;;;;;12.20;11.03;;;16.10;99.90;;;;;;4974826;28;20698;-77
2021/07/26 00:29:50;;;;;;;11.90;11.00;;;16.10;99.90;;;;;;4957578;28;20226;-77
2021/07/26 00:32:17;;;;;;;11.67;10.77;;;16.10;99.90;;;;;;4957589;28;20718;-77
2021/07/26 00:34:44;;;;;;;11.43;10.63;;;16.10;99.90;;;;;;4957776;28;20194;-77
2021/07/26 00:37:12;;;;;;;12.30;11.50;;;16.10;99.90;;;;;;4972969;28;20758;-77
2021/07/26 00:39:39;;;;;;;12.20;11.40;;;16.10;99.90;;;;;;4968463;28;20209;-77
2021/07/26 00:42:06;;;;;;;11.80;11.00;;;16.10;99.90;;;;;;4957300;28;20748;-77
2021/07/26 00:44:34;;;;;;;12.20;11.40;;;16.00;99.90;;;;;;4957266;28;20233;-77
2021/07/26 00:47:01;;;;;;;12.67;11.73;;;16.00;99.90;;;;;;4957424;28;20559;-77
2021/07/26 00:49:29;;;;;;;12.97;12.07;;;16.00;99.90;;;;;;4957367;28;20528;-77
2021/07/26 00:51:58;;;;;;;12.57;11.77;;;16.10;99.90;;;;;;4954082;28;20226;-77
2021/07/26 00:54:27;;;;;;;12.43;11.53;;;16.10;99.90;;;;;;4970443;28;20674;-77
2021/07/26 00:56:56;;;;;;;12.47;11.47;;;16.00;99.90;;;;;;4954395;28;20225;-76
2021/07/26 00:59:23;;;;;;;12.93;12.03;;;16.10;99.90;;;;;;4955467;28;20615;-76
2021/07/26 01:01:50;;;;;;;12.57;11.70;;;16.10;99.90;;;;;;4955925;28;20232;-77
2021/07/26 01:04:17;;;;;;;12.90;12.00;;;16.10;99.90;;;;;;4973172;28;20213;-78
2021/07/26 01:06:45;;;;;;;13.20;12.20;;;16.10;99.90;;;;;;4971145;28;20193;-77
2021/07/26 01:09:13;;;;;;;13.13;12.23;;;16.10;99.90;;;;;;4974329;28;20201;-77
2021/07/26 01:11:41;;;;;;;13.27;12.13;;;16.10;99.90;;;;;;4973117;28;20267;-77
2021/07/26 01:14:08;;;;;;;13.07;11.97;;;16.30;99.90;;;;;;4973354;28;20529;-77
2021/07/26 01:16:36;;;;;;;13.30;12.30;;;16.30;99.90;;;;;;4965529;28;20203;-77
2021/07/26 01:19:04;;;;;;;13.00;12.10;;;16.20;99.90;;;;;;4956701;28;20269;-77
2021/07/26 01:21:32;;;;;;;13.80;12.80;;;16.20;99.90;;;;;;4968540;28;20280;-77
2021/07/26 01:24:01;;;;;;;13.60;12.70;;;16.30;99.90;;;;;;4948832;28;20190;-77
2021/07/26 01:26:28;;;;;;;13.40;12.50;;;16.20;99.90;;;;;;4974239;28;20186;-77
2021/07/26 01:28:57;;;;;;;13.77;12.87;;;16.30;99.90;;;;;;4969477;28;20209;-78
2021/07/26 01:31:25;;;;;;;13.17;12.27;;;16.30;99.90;;;;;;4956577;28;20229;-77
2021/07/26 01:33:53;;;;;;;13.90;12.80;;;16.30;99.90;;;;;;4956067;28;20210;-77
2021/07/26 01:36:22;;;;;;;14.20;13.30;;;16.30;99.90;;;;;;4956750;28;20193;-77
2021/07/26 01:38:52;;;;;;;14.37;13.47;;;16.30;99.90;;;;;;4970168;28;20200;-77
2021/07/26 01:41:21;;;;;;;6.47;5.47;;;16.40;99.90;;;;;;4970651;28;20314;-77
2021/07/26 01:44:02;;;;;;;8.23;7.60;;;16.30;99.90;;;;;;4971575;28;20647;-78
2021/07/26 01:46:41;;;;;;;5.07;4.57;;;16.30;99.90;;;;;;4973927;28;20261;-78
2021/07/26 01:49:22;;;;;;;5.43;4.93;;;16.30;99.90;;;;;;4972365;28;20198;-77
2021/07/26 01:51:49;;;;;;;5.30;4.53;;;16.30;99.90;;;;;;4954947;28;20225;-77
2021/07/26 01:54:17;;;;;;;5.13;4.63;;;16.30;99.90;;;;;;4956295;28;20199;-77
2021/07/26 01:56:45;;;;;;;5.70;4.77;;;16.20;99.90;;;;;;4969584;28;20200;-77
2021/07/26 01:59:12;;;;;;;5.90;5.30;;;16.20;99.90;;;;;;4969592;28;20190;-77
2021/07/26 02:01:38;;;;;;;5.67;4.73;;;16.10;99.90;;;;;;4971418;28;20235;-77
2021/07/26 02:04:05;;;;;;;5.53;5.03;;;16.10;99.90;;;;;;4972385;28;20678;-77
2021/07/26 02:06:32;;;;;;;8.07;5.87;;;16.10;99.90;;;;;;4955972;28;20197;-78
2021/07/26 02:08:59;;;;;;;5.20;4.70;;;16.10;99.90;;;;;;4955340;28;20194;-78
2021/07/26 02:11:27;;;;;;;11.17;10.27;;;16.10;99.90;;;;;;4951921;28;20277;-78
2021/07/26 02:13:54;;;;;;;13.37;12.47;;;16.00;99.90;;;;;;4973244;28;20201;-77
2021/07/26 02:16:21;;;;;;;13.00;12.10;;;16.00;99.90;;;;;;4952698;28;20647;-77
2021/07/26 02:18:48;;;;;;;13.53;12.53;;;16.00;99.90;;;;;;4952564;28;20206;-78
2021/07/26 02:21:15;;;;;;;13.10;11.97;;;16.00;99.90;;;;;;4954120;28;20206;-78
2021/07/26 02:23:42;;;;;;;15.27;14.17;;;16.00;99.90;;;;;;4971943;28;20202;-78
2021/07/26 02:26:08;;;;;;;7.27;5.23;;;16.00;99.90;;;;;;4973160;28;20679;-78
2021/07/26 02:28:37;;;;;;;13.17;12.23;;;16.00;99.90;;;;;;4971933;28;20198;-77
2021/07/26 02:31:03;;;;;;;13.80;12.87;;;16.00;99.90;;;;;;4973000;28;20218;-77
2021/07/26 02:33:30;;;;;;;12.57;11.67;;;16.00;99.90;;;;;;4955696;28;20202;-77
2021/07/26 02:35:57;;;;;;;12.77;11.63;;;16.00;99.90;;;;;;4972045;28;20193;-76
2021/07/26 02:38:24;;;;;;;13.73;12.63;;;16.10;99.90;;;;;;4970745;28;20248;-78
2021/07/26 02:40:50;;;;;;;12.27;11.43;;;16.10;99.90;;;;;;4976623;28;20588;-75
2021/07/26 02:43:17;;;;;;;6.10;5.50;;;16.10;99.90;;;;;;4970909;28;20190;-78
2021/07/26 02:45:47;;;;;;;9.67;8.93;;;16.10;99.90;;;;;;4973269;28;20276;-78
2021/07/26 02:48:14;;;;;;;11.17;10.37;;;16.10;99.90;;;;;;4973097;28;20201;-78
2021/07/26 02:50:41;;;;;;;12.40;11.60;;;16.20;99.90;;;;;;4969644;28;20214;-76
2021/07/26 02:53:08;;;;;;;6.40;5.83;;;16.20;99.90;;;;;;4955157;28;20205;-78
2021/07/26 02:55:35;;;;;;;9.90;9.20;;;16.20;99.90;;;;;;4968043;28;20206;-78
2021/07/26 02:58:01;;;;;;;11.63;10.93;;;16.20;99.90;;;;;;4952964;28;20198;-77
2021/07/26 03:00:28;;;;;;;12.23;11.43;;;16.20;99.90;;;;;;4972654;28;20198;-77
2021/07/26 03:02:56;;;;;;;6.87;6.37;;;16.20;99.90;;;;;;4973009;28;20196;-78
2021/07/26 03:05:23;;;;;;;5.50;5.00;;;16.20;99.90;;;;;;4970838;28;20220;-75
2021/07/26 03:07:50;;;;;;;5.77;4.77;;;16.20;99.90;;;;;;4952778;28;20193;-75
2021/07/26 03:10:17;;;;;;;5.30;4.80;;;16.20;99.90;;;;;;4970084;28;20197;-75
2021/07/26 03:12:44;;;;;;;6.77;4.83;;;16.20;99.90;;;;;;4968096;28;20285;-75
2021/07/26 03:15:12;;;;;;;6.03;4.70;;;16.20;99.90;;;;;;4968446;28;20217;-75
2021/07/26 03:17:39;;;;;;;6.00;4.97;;;16.20;99.90;;;;;;4954808;28;20202;-75
2021/07/26 03:20:08;;;;;;;5.20;4.70;;;16.20;99.90;;;;;;4955073;28;20203;-78
2021/07/26 03:22:58;;;;;;;6.67;5.17;;;16.30;99.90;;;;;;4969670;28;20214;-75
2021/07/26 03:25:25;;;;;;;10.53;9.60;;;16.30;99.90;;;;;;4970814;28;20619;-76
2021/07/26 03:27:52;;;;;;;12.00;11.20;;;16.20;99.90;;;;;;4969790;28;20197;-76
2021/07/26 03:30:20;;;;;;;12.37;11.57;;;16.30;99.90;;;;;;4966911;28;20195;-76
2021/07/26 03:32:48;;;;;;;12.20;11.40;;;16.20;99.90;;;;;;4951956;28;20206;-76
2021/07/26 03:35:17;;;;;;;12.97;11.97;;;16.20;99.90;;;;;;4972518;28;20796;-76
2021/07/26 03:37:44;;;;;;;9.70;8.93;;;16.20;99.90;;;;;;4971612;28;20626;-77
2021/07/26 03:40:12;;;;;;;8.83;7.67;;;16.20;99.90;;;;;;4954966;28;20203;-76
2021/07/26 03:42:40;;;;;;;9.27;8.47;;;16.20;99.90;;;;;;4968216;28;20227;-76
2021/07/26 03:45:09;;;;;;;11.47;10.37;;;16.20;99.90;;;;;;4969094;28;20217;-76
2021/07/26 03:47:38;;;;;;;6.60;5.10;;;16.20;99.90;;;;;;4966092;28;20717;-76
2021/07/26 03:50:06;;;;;;;8.07;5.50;;;16.20;99.90;;;;;;4975753;28;20198;-76
2021/07/26 03:52:47;;;;;;;7.03;5.57;;;16.20;99.90;;;;;;4975930;28;20214;-79
2021/07/26 03:55:18;;;;;;;7.17;5.50;;;16.20;99.90;;;;;;4976181;28;20198;-76
2021/07/26 03:57:46;;;;;;;6.90;5.13;;;16.20;99.90;;;;;;4983548;28;20195;-77
2021/07/26 04:00:14;;;;;;;6.30;5.47;;;16.20;99.90;;;;;;4967643;28;20798;-76
2021/07/26 04:02:42;;;;;;;7.03;5.57;;;16.20;99.90;;;;;;4974182;28;20269;-76
2021/07/26 04:05:17;;;;;;;6.40;5.30;;;16.20;99.90;;;;;;4963176;28;20309;-77
2021/07/26 04:07:47;;;;;;;6.40;5.30;;;16.20;99.90;;;;;;4964467;28;20215;-76
2021/07/26 04:10:14;;;;;;;7.07;5.53;;;16.20;99.90;;;;;;4958258;28;20606;-77
2021/07/26 04:12:45;;;;;;;6.53;5.83;;;16.10;99.90;;;;;;4957861;28;20218;-77
2021/07/26 04:15:12;;;;;;;6.03;4.97;;;16.10;99.90;;;;;;4971901;28;20640;-76
2021/07/26 04:17:39;;;;;;;6.33;4.67;;;16.20;99.90;;;;;;4957761;28;20210;-76
2021/07/26 04:20:07;;;;;;;6.57;5.80;;;16.10;99.90;;;;;;4955013;28;20262;-76
2021/07/26 04:22:34;;;;;;;5.73;4.93;;;16.10;99.90;;;;;;4954341;28;20702;-76
2021/07/26 04:25:03;;;;;;;5.80;5.20;;;16.10;99.90;;;;;;4972469;28;20242;-76
2021/07/26 04:27:32;;;;;;;6.33;5.47;;;16.10;99.90;;;;;;4975262;28;20249;-76
2021/07/26 04:29:59;;;;;;;5.63;5.13;;;16.20;99.90;;;;;;4975131;28;20257;-76
2021/07/26 04:32:26;;;;;;;5.77;5.10;;;16.30;99.90;;;;;;4956848;28;20222;-77
2021/07/26 04:34:53;;;;;;;5.67;4.93;;;16.30;99.90;;;;;;4957385;28;20198;-77
2021/07/26 04:37:20;;;;;;;7.07;5.43;;;16.30;99.90;;;;;;4971609;28;20203;-76
2021/07/26 04:39:47;;;;;;;11.70;8.30;;;16.30;99.90;;;;;;4973090;28;20253;-77
2021/07/26 04:42:15;;;;;;;6.90;5.57;;;16.30;99.90;;;;;;4974534;28;20682;-77
2021/07/26 04:44:41;;;;;;;6.40;5.20;;;16.40;99.90;;;;;;4957359;28;20197;-76
2021/07/26 04:47:09;;;;;;;11.60;10.70;;;16.40;99.90;;;;;;4953404;28;20216;-76
2021/07/26 04:49:36;;;;;;;10.27;9.47;;;16.50;99.90;;;;;;4956625;28;20290;-77
2021/07/26 04:52:03;;;;;;;12.37;11.37;;;16.60;99.90;;;;;;4971244;28;20218;-77
2021/07/26 04:54:30;;;;;;;9.30;8.50;;;16.60;99.90;;;;;;4971805;28;20560;-77
2021/07/26 04:56:57;;;;;;;12.17;11.17;;;16.60;99.90;;;;;;4948903;28;20254;-76
2021/07/26 04:59:25;;;;;;;7.03;5.90;;;16.70;99.90;;;;;;4974119;28;20196;-77
2021/07/26 05:01:52;;;;;;;11.13;10.23;;;16.60;99.90;;;;;;4950817;28;20226;-77
2021/07/26 05:04:19;;;;;;;11.93;10.93;;;16.70;99.90;;;;;;4955785;28;20195;-76
2021/07/26 05:06:46;;;;;;;7.77;6.90;;;16.60;99.90;;;;;;4956896;28;20227;-76
2021/07/26 05:09:13;;;;;;;10.60;9.70;;;16.60;99.90;;;;;;4974358;28;20194;-77
2021/07/26 05:11:43;;;;;;;10.27;9.37;;;16.60;99.90;;;;;;4952529;28;20235;-76
2021/07/26 05:14:10;;;;;;;8.67;7.77;;;16.60;99.90;;;;;;4971822;28;20191;-77
2021/07/26 05:16:39;;;;;;;9.13;8.37;;;16.70;99.90;;;;;;4955936;28;20202;-76
2021/07/26 05:19:06;;;;;;;14.63;13.30;;;16.70;99.90;;;;;;4972094;28;20579;-77
2021/07/26 05:21:33;;;;;;;11.60;10.70;;;16.80;99.90;;;;;;4971780;28;20217;-77
2021/07/26 05:24:00;;;;;;;10.50;9.63;;;16.90;99.90;;;;;;4956883;28;20206;-77
2021/07/26 05:26:28;;;;;;;11.23;10.33;;;17.00;99.90;;;;;;4970115;28;20216;-77
2021/07/26 05:28:55;;;;;;;9.90;9.00;;;17.10;99.90;;;;;;4967768;28;20228;-78
2021/07/26 05:31:22;;;;;;;13.97;12.87;;;17.10;99.90;;;;;;4973834;28;20222;-77
2021/07/26 05:33:50;;;;;;;9.07;8.10;;;17.20;99.90;;;;;;4946036;29;20254;-78
2021/07/26 05:36:17;;;;;;;6.30;5.57;;;17.30;99.90;;;;;;4970098;28;20200;-78
2021/07/26 05:38:44;;;;;;;6.97;5.20;;;17.50;99.90;;;;;;4956253;28;20192;-77
2021/07/26 05:41:10;;;;;;;10.77;9.87;;;17.60;99.90;;;;;;4954450;29;20211;-77
2021/07/26 05:43:37;;;;;;;11.93;10.77;;;17.80;99.90;;;;;;4957220;28;20217;-77
2021/07/26 05:46:04;;;;;;;12.90;11.90;;;18.10;99.90;;;;;;4973385;28;20206;-77
2021/07/26 05:48:31;;;;;;;13.10;12.03;;;18.40;99.90;;;;;;4973435;28;20204;-77
2021/07/26 05:50:59;;;;;;;12.80;11.90;;;18.70;99.90;;;;;;4965716;28;20220;-78
2021/07/26 05:53:26;;;;;;;12.60;11.70;;;19.20;99.90;;;;;;4973421;28;20285;-77
2021/07/26 05:55:52;;;;;;;9.90;9.00;;;19.80;99.90;;;;;;4966906;28;20619;-78
2021/07/26 05:58:19;;;;;;;12.13;11.33;;;20.40;99.90;;;;;;4969975;28;20207;-77
2021/07/26 06:03:43;;;;;;;10.43;9.53;;;21.00;99.90;;;;;;4882514;29;20226;-78
2021/07/26 06:06:12;;;;;;;12.53;11.50;;;21.30;99.90;;;;;;4867264;29;20215;-78
2021/07/26 06:08:38;;;;;;;12.83;11.53;;;21.40;99.90;;;;;;4862370;29;20232;-77
2021/07/26 06:11:05;;;;;;;11.40;10.50;;;21.50;99.90;;;;;;4864571;29;20209;-78
2021/07/26 06:13:32;;;;;;;11.97;11.17;;;21.80;99.90;;;;;;4901535;29;20232;-77
2021/07/26 06:15:59;;;;;;;9.70;8.47;;;21.60;99.90;;;;;;4900215;29;20204;-78
2021/07/26 06:18:27;;;;;;;11.97;10.97;;;21.60;99.90;;;;;;4881856;29;20208;-78
2021/07/26 06:20:54;;;;;;;9.30;8.40;;;21.70;99.90;;;;;;4883045;29;20212;-77
2021/07/26 06:23:22;;;;;;;12.90;11.77;;;21.80;99.90;;;;;;4906351;29;20202;-78
2021/07/26 06:25:49;;;;;;;13.17;12.17;;;21.80;99.90;;;;;;4918644;29;20231;-79
2021/07/26 06:28:16;;;;;;;11.90;11.10;;;21.70;99.90;;;;;;4921872;29;20195;-78
2021/07/26 06:30:43;;;;;;;11.83;10.93;;;21.70;99.90;;;;;;4903793;29;20212;-78
2021/07/26 06:33:09;;;;;;;10.37;9.47;;;21.90;99.90;;;;;;4921003;29;20754;-79
2021/07/26 06:35:36;;;;;;;11.07;10.17;;;22.10;99.90;;;;;;4922188;29;20192;-77
2021/07/26 06:38:03;;;;;;;10.70;9.90;;;22.50;99.90;;;;;;4923324;29;20196;-78
2021/07/26 06:40:33;;;;;;;10.83;9.77;;;23.00;99.90;;;;;;4901823;29;20223;-78
2021/07/26 06:43:00;;;;;;;10.67;9.63;;;23.30;99.90;;;;;;4912763;29;20208;-78
2021/07/26 06:45:27;;;;;;;8.03;7.33;;;23.60;99.90;;;;;;4922601;29;20596;-78
2021/07/26 06:47:54;;;;;;;11.43;10.63;;;23.70;99.90;;;;;;4920842;29;20311;-78
2021/07/26 06:50:20;;;;;;;11.07;10.17;;;23.40;99.90;;;;;;4921550;29;20207;-78
2021/07/26 06:52:47;;;;;;;10.33;9.63;;;23.20;99.90;;;;;;4905431;29;20636;-78
2021/07/26 06:55:14;;;;;;;11.50;10.60;;;23.10;99.90;;;;;;4916782;29;20192;-78
2021/07/26 06:57:42;;;;;;;11.87;10.93;;;23.10;99.90;;;;;;4918999;29;20195;-78
2021/07/26 07:00:10;;;;;;;12.73;11.87;;;23.20;99.90;;;;;;4918298;29;20200;-78
2021/07/26 07:02:37;;;;;;;12.63;11.60;;;23.50;99.90;;;;;;4904093;29;20323;-78
2021/07/26 07:05:05;;;;;;;8.80;8.00;;;23.70;99.90;;;;;;4919708;29;20251;-79
2021/07/26 07:07:31;;;;;;;11.53;10.70;;;23.40;99.90;;;;;;4923914;29;20218;-78
2021/07/26 07:09:58;;;;;;;11.53;10.53;;;23.20;99.90;;;;;;4923578;29;20664;-78
2021/07/26 07:12:25;;;;;;;10.17;9.47;;;23.50;99.90;;;;;;4923900;29;20245;-78
2021/07/26 07:14:53;;;;;;;10.60;9.90;;;23.60;99.90;;;;;;4922946;29;20224;-78
2021/07/26 07:17:20;;;;;;;10.53;9.73;;;23.40;99.90;;;;;;4905320;29;20220;-78
2021/07/26 07:19:49;;;;;;;10.70;9.73;;;23.30;99.90;;;;;;4919573;29;20207;-78
2021/07/26 07:22:21;;;;;;;10.80;9.90;;;23.60;99.90;;;;;;4909499;29;20219;-78
2021/07/26 07:24:47;;;;;;;12.17;11.03;;;23.80;99.90;;;;;;4912765;29;20610;-79
2021/07/26 07:27:14;;;;;;;12.20;11.40;;;23.90;99.90;;;;;;4910491;29;20224;-77
2021/07/26 07:29:41;;;;;;;11.13;10.30;;;24.60;99.90;;;;;;4910042;29;20259;-77
2021/07/26 07:32:12;;;;;;;9.20;7.90;;;25.10;99.90;;;;;;4927290;29;20218;-78
2021/07/26 07:34:39;;;;;;;8.57;7.87;;;25.40;99.90;;;;;;4921606;29;20393;-79
2021/07/26 07:37:08;;;;;;;9.57;8.77;;;25.50;99.90;;;;;;4929810;29;20192;-79
2021/07/26 07:39:35;;;;;;;8.53;7.93;;;26.00;99.90;;;;;;4929675;29;20224;-77
2021/07/26 07:42:02;;;;;;;10.33;9.63;;;26.60;99.90;;;;;;4928373;29;20240;-78
2021/07/26 07:44:32;;;;;;;12.27;11.20;;;26.90;99.90;;;;;;4931101;29;20195;-78
2021/07/26 07:47:00;;;;;;;11.17;10.37;;;27.00;99.90;;;;;;4921565;29;20213;-79
2021/07/26 07:49:29;;;;;;;12.30;11.30;;;26.50;99.90;;;;;;4912822;29;20223;-78
2021/07/26 07:51:56;;;;;;;10.17;9.37;;;26.60;99.90;;;;;;4929349;29;20219;-79
2021/07/26 07:54:23;;;;;;;10.93;10.03;;;26.70;99.90;;;;;;4931532;29;20215;-78
2021/07/26 07:56:51;;;;;;;12.40;11.27;;;27.10;99.90;;;;;;4930808;29;20203;-78
2021/07/26 07:59:18;;;;;;;12.10;11.20;;;27.00;99.90;;;;;;4932542;29;20204;-78
2021/07/26 08:01:45;;;;;;;10.60;9.80;;;27.00;99.90;;;;;;4931321;29;20266;-79
2021/07/26 08:04:15;;;;;;;11.37;10.37;;;27.10;99.90;;;;;;4928734;29;20196;-78
2021/07/26 08:06:43;;;;;;;11.20;10.40;;;27.00;99.90;;;;;;4931362;29;20211;-77
2021/07/26 08:09:10;;;;;;;10.87;10.07;;;27.30;99.90;;;;;;4932870;29;20192;-77
2021/07/26 08:11:37;;;;;;;11.27;10.47;;;27.60;99.90;;;;;;4931137;29;20296;-78
2021/07/26 08:14:04;;;;;;;11.37;10.37;;;27.70;99.90;;;;;;4931099;29;20206;-78
2021/07/26 08:16:32;;;;;;;11.20;10.40;;;28.20;99.90;;;;;;4931481;29;20717;-79
2021/07/26 08:18:59;;;;;;;10.00;9.27;;;28.30;99.90;;;;;;4933612;29;20192;-78
2021/07/26 08:21:28;;;;;;;11.27;10.57;;;28.30;99.90;;;;;;4929234;29;20216;-77
2021/07/26 08:23:58;;;;;;;9.50;8.80;;;28.60;99.90;;;;;;4930178;29;20192;-77
2021/07/26 08:26:25;;;;;;;10.73;9.83;;;28.20;99.90;;;;;;4933917;29;20196;-79
2021/07/26 08:28:52;;;;;;;10.97;10.17;;;28.50;99.90;;;;;;4931684;29;20212;-77
2021/07/26 08:31:18;;;;;;;11.37;10.57;;;28.80;99.90;;;;;;4933214;29;20220;-77
2021/07/26 08:33:45;;;;;;;11.10;10.40;;;29.00;99.90;;;;;;4931679;29;20204;-77
2021/07/26 08:36:12;;;;;;;10.67;9.90;;;29.20;99.90;;;;;;4912873;29;20203;-78
2021/07/26 08:38:39;;;;;;;10.90;10.23;;;29.20;99.90;;;;;;4912740;29;20207;-78
2021/07/26 08:41:07;;;;;;;11.73;10.70;;;29.20;99.90;;;;;;4930216;29;20196;-78
2021/07/26 08:43:35;;;;;;;10.50;9.80;;;29.00;99.90;;;;;;4932289;29;20624;-77
2021/07/26 08:46:03;;;;;;;10.53;9.83;;;29.10;99.90;;;;;;4931281;29;20196;-77
2021/07/26 08:48:32;;;;;;;10.50;9.80;;;29.10;99.90;;;;;;4929305;29;20223;-78
2021/07/26 08:51:03;;;;;;;11.07;10.37;;;29.10;99.90;;;;;;4923311;29;20200;-78
2021/07/26 08:53:33;;;;;;;11.43;10.60;;;28.80;99.90;;;;;;4932216;29;20196;-78
2021/07/26 08:56:00;;;;;;;10.83;10.13;;;29.00;99.90;;;;;;4906108;29;20212;-78
2021/07/26 08:58:29;;;;;;;10.30;9.60;;;28.90;99.90;;;;;;4921690;29;20192;-79
2021/07/26 09:00:56;;;;;;;10.10;9.50;;;29.30;99.90;;;;;;4927491;29;20196;-77
2021/07/26 09:03:23;;;;;;;9.70;9.10;;;29.50;99.90;;;;;;4924968;29;20196;-78
2021/07/26 09:05:50;;;;;;;9.03;8.43;;;29.60;99.90;;;;;;4911167;29;20211;-78
2021/07/26 09:08:17;;;;;;;10.90;10.20;;;29.80;99.90;;;;;;4924358;29;20209;-77
2021/07/26 09:10:45;;;;;;;10.70;10.00;;;29.40;99.90;;;;;;4929538;29;20203;-78
2021/07/26 09:13:12;;;;;;;11.23;10.43;;;29.60;99.90;;;;;;4930631;29;20216;-78
2021/07/26 09:15:42;;;;;;;11.80;11.00;;;29.60;99.90;;;;;;4930935;29;20236;-78
2021/07/26 09:18:10;;;;;;;9.90;9.17;;;29.70;99.90;;;;;;4931509;29;20188;-78
2021/07/26 09:20:39;;;;;;;9.20;8.53;;;29.60;99.90;;;;;;4929289;29;20219;-78
2021/07/26 09:23:14;;;;;;;9.40;8.60;;;29.80;99.90;;;;;;4930478;29;20839;-78
2021/07/26 09:25:42;;;;;;;8.90;8.20;;;30.00;99.90;;;;;;4926490;29;20207;-77
2021/07/26 09:28:11;;;;;;;8.17;7.53;;;30.20;99.90;;;;;;4928905;29;20245;-78
2021/07/26 09:30:46;;;;;;;8.10;7.60;;;30.40;99.90;;;;;;4929615;29;20199;-77
2021/07/26 09:33:29;;;;;;;8.97;8.07;;;30.20;99.90;;;;;;4931338;29;20217;-78
2021/07/26 09:36:05;;;;;;;10.70;10.10;;;30.20;99.90;;;;;;4914996;29;20200;-77
2021/07/26 09:38:32;;;;;;;8.53;7.83;;;30.50;99.90;;;;;;4923348;29;20199;-78
2021/07/26 09:41:00;;;;;;;7.87;7.30;;;30.60;99.90;;;;;;4914873;29;20202;-77
2021/07/26 09:43:27;;;;;;;7.93;7.33;;;30.30;99.90;;;;;;4931293;29;20192;-77
2021/07/26 09:45:56;;;;;;;10.33;9.63;;;30.30;99.90;;;;;;4931872;29;20188;-77
2021/07/26 09:48:26;;;;;;;10.80;10.00;;;30.20;99.90;;;;;;4931903;29;20689;-78
2021/07/26 09:50:53;;;;;;;10.73;9.93;;;29.90;99.90;;;;;;4923137;29;20204;-78
2021/07/26 09:53:22;;;;;;;10.33;9.63;;;29.90;99.90;;;;;;4907114;29;20272;-78
2021/07/26 09:55:50;;;;;;;10.20;9.40;;;30.00;99.90;;;;;;4922144;29;20203;-78
2021/07/26 09:58:18;;;;;;;10.40;9.70;;;30.10;99.90;;;;;;4911803;29;20212;-78
2021/07/26 10:00:45;;;;;;;10.37;9.67;;;30.30;99.90;;;;;;4912336;29;20220;-77
2021/07/26 10:03:15;;;;;;;10.03;9.33;;;30.50;99.90;;;;;;4914903;29;20224;-77
2021/07/26 10:05:43;;;;;;;10.80;9.90;;;30.60;99.90;;;;;;4928954;29;20268;-78
2021/07/26 10:08:10;;;;;;;10.53;9.83;;;30.40;99.90;;;;;;4931200;29;20267;-79
2021/07/26 10:10:38;;;;;;;10.73;10.03;;;30.40;99.90;;;;;;4929902;29;20220;-78
2021/07/26 10:13:07;;;;;;;10.23;9.53;;;30.50;99.90;;;;;;4931408;29;20225;-77
2021/07/26 10:15:34;;;;;;;10.40;9.70;;;30.50;99.90;;;;;;4911905;29;20560;-77
2021/07/26 10:18:01;;;;;;;9.97;9.27;;;30.30;99.90;;;;;;4926094;29;20202;-78
2021/07/26 10:20:31;;;;;;;10.03;9.40;;;29.80;99.90;;;;;;4929260;29;20196;-77
2021/07/26 10:23:03;;;;;;;10.70;9.90;;;29.60;99.90;;;;;;4923547;29;20210;-78
2021/07/26 10:25:34;;;;;;;10.20;9.53;;;29.50;99.90;;;;;;4932057;29;20211;-78
2021/07/26 10:28:03;;;;;;;9.93;9.20;;;29.70;99.90;;;;;;4919186;29;20223;-78
2021/07/26 10:30:35;;;;;;;10.40;9.53;;;29.60;99.90;;;;;;4930517;29;20222;-77
2021/07/26 10:33:02;;;;;;;10.80;10.00;;;29.10;99.90;;;;;;4913266;29;20224;-79
2021/07/26 10:35:48;;;;;;;10.40;9.60;;;28.40;99.90;;;;;;4927854;29;20195;-77
2021/07/26 10:38:15;;;;;;;10.43;9.70;;;28.10;99.90;;;;;;4929280;29;20196;-77
2021/07/26 10:40:42;;;;;;;10.67;9.87;;;27.30;99.90;;;;;;4927255;29;20199;-76
2021/07/26 10:43:16;;;;;;;10.20;9.50;;;27.10;99.90;;;;;;4925661;29;20214;-76
2021/07/26 10:45:58;;;;;;;10.03;9.43;;;26.90;99.90;;;;;;4924645;29;20733;-77
2021/07/26 10:48:31;;;;;;;10.53;9.57;;;27.00;99.90;;;;;;4928052;29;20582;-78
2021/07/26 10:51:00;;;;;;;9.67;9.07;;;26.80;99.90;;;;;;4920860;29;20204;-77
2021/07/26 10:54:00;;;;;;;9.63;9.03;;;26.60;99.90;;;;;;4925104;29;20196;-79
2021/07/26 10:56:27;;;;;;;9.90;9.20;;;26.60;99.90;;;;;;4866421;29;20201;-78
2021/07/26 10:59:04;;;;;;;10.20;9.43;;;26.90;99.90;;;;;;4912792;29;20576;-78
2021/07/26 11:01:56;;;;;;;10.60;9.50;;;27.30;99.90;;;;;;4922135;29;20692;-78
2021/07/26 11:04:43;;;;;;;9.00;8.40;;;27.30;99.90;;;;;;4929235;29;20197;-79
2021/07/26 11:07:29;;;;;;;9.93;9.33;;;27.50;99.90;;;;;;4909396;29;20267;-78
2021/07/26 11:09:56;;;;;;;10.00;9.30;;;27.70;99.90;;;;;;4925829;29;20192;-78
2021/07/26 11:12:51;;;;;;;10.03;9.33;;;27.50;99.90;;;;;;4928422;29;20247;-77
2021/07/26 11:15:18;;;;;;;10.10;9.40;;;27.40;99.90;;;;;;4921559;29;20203;-79
2021/07/26 11:18:18;;;;;;;10.27;9.57;;;27.00;99.90;;;;;;4907208;29;20208;-78
2021/07/26 11:21:16;;;;;;;10.20;9.40;;;26.80;99.90;;;;;;4920794;29;20206;-77
2021/07/26 11:23:52;;;;;;;10.43;9.73;;;26.90;99.90;;;;;;4926259;29;20227;-77
2021/07/26 11:26:25;;;;;;;10.27;9.57;;;26.90;99.90;;;;;;4917847;29;20207;-78
2021/07/26 11:28:53;;;;;;;9.83;9.13;;;27.20;99.90;;;;;;4919557;29;20275;-76
2021/07/26 11:31:25;;;;;;;10.23;9.50;;;27.40;99.90;;;;;;4926734;29;20214;-78
2021/07/26 11:33:53;;;;;;;10.57;9.87;;;27.40;99.90;;;;;;4926260;29;20207;-78
2021/07/26 11:36:20;;;;;;;12.20;11.40;;;27.30;99.90;;;;;;4919161;29;20729;-77
2021/07/26 11:39:03;;;;;;;10.87;10.10;;;27.30;99.90;;;;;;4928021;29;20195;-78
2021/07/26 11:41:31;;;;;;;10.23;9.43;;;26.80;99.90;;;;;;4918090;29;20221;-76
2021/07/26 11:43:58;;;;;;;10.20;9.50;;;26.60;99.90;;;;;;4926161;29;20206;-79
2021/07/26 11:46:26;;;;;;;10.30;9.53;;;26.60;99.90;;;;;;4922397;29;20196;-77
2021/07/26 11:49:00;;;;;;;9.87;9.23;;;26.70;99.90;;;;;;4918427;29;20250;-78
2021/07/26 11:51:33;;;;;;;9.90;9.30;;;26.70;99.90;;;;;;4923757;29;20221;-78
2021/07/26 11:54:04;;;;;;;10.07;9.37;;;26.70;99.90;;;;;;4925231;29;20283;-77
2021/07/26 11:56:31;;;;;;;10.17;9.37;;;26.70;99.90;;;;;;4924014;29;20192;-78
2021/07/26 11:59:22;;;;;;;10.00;9.30;;;26.70;99.90;;;;;;4914969;29;20181;-79
2021/07/26 12:01:56;;;;;;;9.67;8.97;;;26.70;99.90;;;;;;4940441;23;20693;-78
2021/07/26 12:04:27;;;;;;;10.00;9.30;;;26.50;99.90;;;;;;4966874;28;20251;-77
2021/07/26 12:06:59;;;;;;;9.70;9.10;;;26.40;99.90;;;;;;4985114;28;20225;-77
2021/07/26 12:09:28;;;;;;;9.60;9.00;;;26.20;99.90;;;;;;4994949;28;20217;-77
2021/07/26 12:11:56;;;;;;;9.70;9.00;;;26.20;99.90;;;;;;4977993;28;20271;-77
2021/07/26 12:14:25;;;;;;;10.13;9.33;;;26.00;99.90;;;;;;4969490;28;20193;-78
2021/07/26 12:16:59;;;;;;;9.80;9.17;;;25.80;99.90;;;;;;4986453;28;20280;-78
2021/07/26 12:19:26;;;;;;;11.03;10.33;;;25.60;99.90;;;;;;4984225;28;20188;-78
2021/07/26 12:21:53;;;;;;;10.27;9.47;;;25.50;99.90;;;;;;4964829;28;20216;-78
2021/07/26 12:24:49;;;;;;;9.43;8.83;;;25.30;99.90;;;;;;4964384;28;20222;-78
2021/07/26 12:27:34;;;;;;;9.47;8.87;;;25.20;99.90;;;;;;4961208;28;20603;-78
2021/07/26 12:30:04;;;;;;;9.97;9.27;;;25.10;99.90;;;;;;4956375;28;20698;-79
2021/07/26 12:32:33;;;;;;;9.97;9.27;;;24.80;99.90;;;;;;4986660;28;20580;-78
2021/07/26 12:35:28;;;;;;;9.20;8.60;;;24.70;99.90;;;;;;4971955;28;20200;-78
2021/07/26 12:38:09;;;;;;;9.67;8.87;;;24.70;99.90;;;;;;4961080;28;20659;-77
2021/07/26 12:40:39;;;;;;;10.00;9.30;;;24.60;99.90;;;;;;4964511;28;20204;-77
2021/07/26 12:43:11;;;;;;;10.33;9.63;;;24.30;99.90;;;;;;4982276;28;20291;-77
2021/07/26 12:45:39;;;;;;;10.20;9.50;;;24.10;99.90;;;;;;4962393;28;20956;-77
2021/07/26 12:48:13;;;;;;;9.93;9.13;;;24.00;99.90;;;;;;4981861;28;20245;-77
2021/07/26 12:50:41;;;;;;;10.13;9.33;;;23.90;99.90;;;;;;4980137;28;20207;-76